createdAt,value
2022-12-23T00:00:34.048Z,0.00
2022-12-23T00:01:33.963Z,0.00
2022-12-23T00:02:34.211Z,0.00
2022-12-23T00:03:34.075Z,0.00
2022-12-23T00:04:33.954Z,0.00
2022-12-23T00:05:37.746Z,0.00
2022-12-23T00:06:33.910Z,0.00
2022-12-23T00:07:33.878Z,0.00
2022-12-23T00:08:33.888Z,0.00
2022-12-23T00:09:33.908Z,0.00
2022-12-23T00:10:33.873Z,0.00
2022-12-23T00:11:33.838Z,0.00
2022-12-23T00:12:33.848Z,0.00
2022-12-23T00:13:33.863Z,0.00
2022-12-23T00:14:33.866Z,0.00
2022-12-23T00:15:33.823Z,0.00
2022-12-23T00:16:33.835Z,0.00
2022-12-23T00:17:33.773Z,0.00
2022-12-23T00:18:33.766Z,0.00
2022-12-23T00:19:33.753Z,0.00
2022-12-23T00:20:33.764Z,0.00
2022-12-23T00:21:33.829Z,0.00
2022-12-23T00:22:33.729Z,0.00
2022-12-23T00:23:33.696Z,0.00
2022-12-23T00:24:33.739Z,0.00
2022-12-23T00:25:33.700Z,0.00
2022-12-23T00:26:33.684Z,0.00
2022-12-23T00:27:37.522Z,0.00
2022-12-23T00:28:33.657Z,0.00
2022-12-23T00:29:33.642Z,0.00
2022-12-23T00:30:33.648Z,0.00
2022-12-23T00:31:33.655Z,0.00
2022-12-23T00:32:33.713Z,0.00
2022-12-23T00:33:33.600Z,0.00
2022-12-23T00:34:33.609Z,0.00
2022-12-23T00:35:33.581Z,0.00
2022-12-23T00:36:33.655Z,0.00
2022-12-23T00:37:33.598Z,0.00
2022-12-23T00:38:33.609Z,0.00
2022-12-23T00:39:33.534Z,0.00
2022-12-23T00:40:33.532Z,0.00
2022-12-23T00:41:33.533Z,0.00
2022-12-23T00:42:33.530Z,0.00
2022-12-23T00:43:33.502Z,0.00
2022-12-23T00:44:33.552Z,0.00
2022-12-23T00:45:33.523Z,0.00
2022-12-23T00:46:33.466Z,0.00
2022-12-23T00:47:33.443Z,0.00
2022-12-23T00:48:33.449Z,0.00
2022-12-23T00:49:33.456Z,0.00
2022-12-23T00:50:33.449Z,0.00
2022-12-23T00:51:33.404Z,0.00
2022-12-23T00:52:33.405Z,0.00
2022-12-23T00:53:33.403Z,0.00
2022-12-23T00:54:33.382Z,0.00
2022-12-23T00:55:33.418Z,0.00
2022-12-23T00:56:33.386Z,0.00
2022-12-23T00:57:33.358Z,0.00
2022-12-23T00:58:33.340Z,0.00
2022-12-23T00:59:33.353Z,0.00
2022-12-23T01:00:33.320Z,0.00
2022-12-23T01:01:33.524Z,0.00
2022-12-23T01:02:33.396Z,0.00
2022-12-23T01:03:33.351Z,0.00
2022-12-23T01:04:33.289Z,0.00
2022-12-23T01:05:33.262Z,0.00
2022-12-23T01:06:33.289Z,0.00
2022-12-23T01:07:33.248Z,0.00
2022-12-23T01:08:33.258Z,0.00
2022-12-23T01:09:33.205Z,0.00
2022-12-23T01:10:33.218Z,0.00
2022-12-23T01:11:33.192Z,0.00
2022-12-23T01:12:33.192Z,0.00
2022-12-23T01:13:33.412Z,0.00
2022-12-23T01:14:33.190Z,0.00
2022-12-23T01:15:33.161Z,0.00
2022-12-23T01:16:33.196Z,0.00
2022-12-23T01:17:33.184Z,0.00
2022-12-23T01:18:33.145Z,0.00
2022-12-23T01:19:33.133Z,0.00
2022-12-23T01:20:33.112Z,0.00
2022-12-23T01:21:33.111Z,0.00
2022-12-23T01:22:33.090Z,0.00
2022-12-23T01:23:33.067Z,0.00
2022-12-23T01:24:33.142Z,0.00
2022-12-23T01:25:33.069Z,0.00
2022-12-23T01:26:33.071Z,0.00
2022-12-23T01:27:33.029Z,0.00
2022-12-23T01:28:33.041Z,0.00
2022-12-23T01:29:33.003Z,0.00
2022-12-23T01:30:33.006Z,0.00
2022-12-23T01:31:33.020Z,0.00
2022-12-23T01:32:33.000Z,0.00
2022-12-23T01:33:32.971Z,0.00
2022-12-23T01:34:36.985Z,0.00
2022-12-23T01:35:32.940Z,0.00
2022-12-23T01:36:32.948Z,0.00
2022-12-23T01:37:32.936Z,0.00
2022-12-23T01:38:32.924Z,0.00
2022-12-23T01:39:32.920Z,0.00
2022-12-23T01:40:32.901Z,0.00
2022-12-23T01:41:32.894Z,0.00
2022-12-23T01:42:32.884Z,0.00
2022-12-23T01:43:32.883Z,0.00
2022-12-23T01:44:32.872Z,0.00
2022-12-23T01:45:32.905Z,0.00
2022-12-23T01:46:32.945Z,0.00
2022-12-23T01:47:32.837Z,0.00
2022-12-23T01:48:32.816Z,0.00
2022-12-23T01:49:32.801Z,0.00
2022-12-23T01:50:32.789Z,0.00
2022-12-23T01:51:32.764Z,0.00
2022-12-23T01:52:32.801Z,0.00
2022-12-23T01:53:32.773Z,0.00
2022-12-23T01:54:32.759Z,0.00
2022-12-23T01:55:32.738Z,0.00
2022-12-23T01:56:32.744Z,0.00
2022-12-23T01:57:32.730Z,0.00
2022-12-23T01:58:32.735Z,0.00
2022-12-23T01:59:32.687Z,0.00
2022-12-23T02:00:32.713Z,0.00
2022-12-23T02:01:32.802Z,0.00
2022-12-23T02:02:32.836Z,0.00
2022-12-23T02:03:32.722Z,0.00
2022-12-23T02:04:32.650Z,0.00
2022-12-23T02:05:32.639Z,0.00
2022-12-23T02:06:32.649Z,0.00
2022-12-23T02:07:32.634Z,0.00
2022-12-23T02:08:32.636Z,0.00
2022-12-23T02:09:32.574Z,0.00
2022-12-23T06:00:46.609Z,0.00
2022-12-23T06:01:47.686Z,0.00
2022-12-23T06:02:53.499Z,0.00
2022-12-23T06:03:47.635Z,0.00
2022-12-23T06:04:47.619Z,0.00
2022-12-23T06:05:47.545Z,0.00
2022-12-23T06:06:47.536Z,0.00
2022-12-23T06:07:47.521Z,0.00
2022-12-23T06:08:47.576Z,0.00
2022-12-23T06:09:47.497Z,0.00
2022-12-23T06:10:47.528Z,0.00
2022-12-23T06:11:47.491Z,0.00
2022-12-23T06:12:47.489Z,0.00
2022-12-23T06:13:47.461Z,0.00
2022-12-23T06:14:47.475Z,0.00
2022-12-23T06:15:47.440Z,0.00
2022-12-23T06:16:47.535Z,0.00
2022-12-23T06:17:47.420Z,0.00
2022-12-23T06:18:47.422Z,0.00
2022-12-23T06:19:47.393Z,0.00
2022-12-23T06:20:47.442Z,0.00
2022-12-23T06:21:47.382Z,0.00
2022-12-23T06:22:47.397Z,0.00
2022-12-23T06:23:47.363Z,0.00
2022-12-23T06:24:47.408Z,0.00
2022-12-23T06:25:47.336Z,0.00
2022-12-23T06:26:49.745Z,0.00
2022-12-23T06:27:47.328Z,0.00
2022-12-23T06:28:47.328Z,0.00
2022-12-23T06:29:47.283Z,0.00
2022-12-23T06:30:47.314Z,0.00
2022-12-23T06:31:47.373Z,0.00
2022-12-23T06:32:47.281Z,0.00
2022-12-23T06:33:47.256Z,0.00
2022-12-23T06:34:47.253Z,0.00
2022-12-23T06:35:47.228Z,0.00
2022-12-23T06:36:47.236Z,0.00
2022-12-23T06:37:47.214Z,0.00
2022-12-23T06:38:47.226Z,0.00
2022-12-23T06:39:47.192Z,0.00
2022-12-23T06:40:47.196Z,0.00
2022-12-23T06:41:47.206Z,0.00
2022-12-23T06:42:47.173Z,0.00
2022-12-23T06:43:52.533Z,0.00
2022-12-23T06:44:47.156Z,0.00
2022-12-23T06:45:47.156Z,0.00
2022-12-23T06:46:47.125Z,0.00
2022-12-23T06:47:47.094Z,0.00
2022-12-23T06:48:47.119Z,0.00
2022-12-23T06:49:47.109Z,0.00
2022-12-23T06:50:47.072Z,1.00
2022-12-23T06:51:47.062Z,0.00
2022-12-23T06:52:47.029Z,1.00
2022-12-23T06:53:46.984Z,1.00
2022-12-23T06:54:47.022Z,1.00
2022-12-23T06:55:46.977Z,2.00
2022-12-23T06:56:46.972Z,2.00
2022-12-23T06:57:46.937Z,2.00
2022-12-23T06:58:46.945Z,1.00
2022-12-23T06:59:46.921Z,1.00
2022-12-23T07:00:47.073Z,0.00
2022-12-23T07:01:47.064Z,2.00
2022-12-23T07:02:47.053Z,2.00
2022-12-23T07:03:46.977Z,0.00
2022-12-23T07:04:46.891Z,2.00
2022-12-23T07:05:46.857Z,1.00
2022-12-23T07:06:46.872Z,1.00
2022-12-23T07:07:46.837Z,2.00
2022-12-23T07:08:46.828Z,1.00
2022-12-23T07:09:46.806Z,3.00
2022-12-23T07:10:46.814Z,4.00
2022-12-23T07:11:46.833Z,5.00
2022-12-23T07:12:50.680Z,6.00
2022-12-23T07:13:46.761Z,9.00
2022-12-23T07:14:46.771Z,9.00
2022-12-23T07:15:46.742Z,14.00
2022-12-23T07:16:46.827Z,17.00
2022-12-23T07:17:46.724Z,21.00
2022-12-23T07:18:46.723Z,20.00
2022-12-23T07:19:46.705Z,24.00
2022-12-23T07:20:46.720Z,29.00
2022-12-23T07:21:46.679Z,32.00
2022-12-23T07:22:46.708Z,27.00
2022-12-23T07:23:46.702Z,33.00
2022-12-23T07:24:46.668Z,39.00
2022-12-23T07:25:46.646Z,42.00
2022-12-23T07:26:46.653Z,44.00
2022-12-23T07:27:46.616Z,51.00
2022-12-23T07:28:46.620Z,55.00
2022-12-23T07:29:46.623Z,44.00
2022-12-23T07:30:46.599Z,43.00
2022-12-23T07:31:46.682Z,42.00
2022-12-23T07:32:46.591Z,39.00
2022-12-23T07:33:46.567Z,41.00
2022-12-23T07:34:46.572Z,45.00
2022-12-23T07:35:46.529Z,56.00
2022-12-23T07:36:46.548Z,56.00
2022-12-23T07:37:46.519Z,54.00
2022-12-23T07:38:46.518Z,58.00
2022-12-23T07:39:46.493Z,38.00
2022-12-23T07:40:46.512Z,47.00
2022-12-23T07:41:46.485Z,59.00
2022-12-23T07:42:47.137Z,51.00
2022-12-23T07:43:46.451Z,56.00
2022-12-23T07:44:46.467Z,47.00
2022-12-23T07:45:46.462Z,87.00
2022-12-23T07:46:46.504Z,120.00
2022-12-23T07:47:46.405Z,115.00
2022-12-23T07:48:46.466Z,62.00
2022-12-23T07:49:46.390Z,77.00
2022-12-23T07:50:46.387Z,119.00
2022-12-23T07:51:46.372Z,131.00
2022-12-23T07:52:46.376Z,140.00
2022-12-23T07:53:46.373Z,111.00
2022-12-23T07:54:46.365Z,126.00
2022-12-23T07:55:50.119Z,98.00
2022-12-23T07:56:46.356Z,132.00
2022-12-23T07:57:46.312Z,118.00
2022-12-23T07:58:46.316Z,140.00
2022-12-23T07:59:46.296Z,140.00
2022-12-23T08:00:46.276Z,166.00
2022-12-23T08:01:46.447Z,175.00
2022-12-23T08:02:46.459Z,209.00
2022-12-23T08:03:46.345Z,209.00
2022-12-23T08:04:46.783Z,209.00
2022-12-23T08:05:46.238Z,206.00
2022-12-23T08:06:46.248Z,211.00
2022-12-23T08:07:46.239Z,227.00
2022-12-23T08:08:46.226Z,233.00
2022-12-23T08:09:46.175Z,216.00
2022-12-23T08:10:48.532Z,254.00
2022-12-23T08:11:46.174Z,259.00
2022-12-23T08:12:46.171Z,261.00
2022-12-23T08:13:46.171Z,290.00
2022-12-23T08:14:46.182Z,287.00
2022-12-23T08:15:46.107Z,273.00
2022-12-23T08:16:46.175Z,284.00
2022-12-23T08:17:46.103Z,289.00
2022-12-23T08:18:46.102Z,311.00
2022-12-23T08:19:46.098Z,339.00
2022-12-23T08:20:46.100Z,346.00
2022-12-23T08:21:46.056Z,344.00
2022-12-23T08:22:46.073Z,371.00
2022-12-23T08:23:46.048Z,368.00
2022-12-23T08:24:46.030Z,345.00
2022-12-23T08:25:46.047Z,345.00
2022-12-23T08:26:46.045Z,352.00
2022-12-23T08:27:45.996Z,344.00
2022-12-23T08:28:45.978Z,340.00
2022-12-23T08:29:45.981Z,335.00
2022-12-23T08:30:46.044Z,306.00
2022-12-23T08:31:46.010Z,290.00
2022-12-23T08:32:45.959Z,287.00
2022-12-23T08:33:45.931Z,313.00
2022-12-23T08:34:45.937Z,322.00
2022-12-23T08:35:45.948Z,332.00
2022-12-23T08:36:45.919Z,404.00
2022-12-23T08:37:45.889Z,472.00
2022-12-23T08:38:45.888Z,495.00
2022-12-23T08:39:45.846Z,491.00
2022-12-23T08:40:45.870Z,489.00
2022-12-23T08:41:45.848Z,466.00
2022-12-23T08:42:45.864Z,457.00
2022-12-23T08:43:45.831Z,470.00
2022-12-23T08:44:45.836Z,480.00
2022-12-23T08:45:45.888Z,494.00
2022-12-23T08:46:45.908Z,500.00
2022-12-23T08:47:45.780Z,526.00
2022-12-23T08:48:49.417Z,522.00
2022-12-23T08:49:45.769Z,509.00
2022-12-23T08:50:45.747Z,518.00
2022-12-23T08:51:45.735Z,538.00
2022-12-23T08:52:45.760Z,558.00
2022-12-23T08:53:45.768Z,568.00
2022-12-23T08:54:45.725Z,567.00
2022-12-23T08:55:45.716Z,561.00
2022-12-23T08:56:45.690Z,562.00
2022-12-23T08:57:45.668Z,565.00
2022-12-23T08:58:45.677Z,551.00
2022-12-23T08:59:45.664Z,501.00
2022-12-23T09:00:45.837Z,468.00
2022-12-23T09:01:45.784Z,472.00
2022-12-23T09:02:45.839Z,512.00
2022-12-23T09:03:45.661Z,504.00
2022-12-23T09:04:45.614Z,467.00
2022-12-23T09:05:45.578Z,419.00
2022-12-23T09:06:45.633Z,506.00
2022-12-23T09:07:45.566Z,535.00
2022-12-23T09:08:45.553Z,552.00
2022-12-23T09:09:45.551Z,538.00
2022-12-23T09:10:45.555Z,520.00
2022-12-23T09:11:45.512Z,455.00
2022-12-23T09:12:45.524Z,421.00
2022-12-23T09:13:45.535Z,388.00
2022-12-23T09:14:45.510Z,375.00
2022-12-23T09:15:45.563Z,400.00
2022-12-23T09:16:45.490Z,447.00
2022-12-23T09:17:45.471Z,492.00
2022-12-23T09:18:45.480Z,566.00
2022-12-23T09:19:50.469Z,440.00
2022-12-23T09:20:45.443Z,412.00
2022-12-23T09:21:45.423Z,382.00
2022-12-23T09:22:45.432Z,295.00
2022-12-23T09:23:45.408Z,306.00
2022-12-23T09:24:45.397Z,214.00
2022-12-23T09:25:45.376Z,230.00
2022-12-23T09:26:45.384Z,249.00
2022-12-23T09:27:45.351Z,480.00
2022-12-23T09:28:45.358Z,467.00
2022-12-23T09:29:45.366Z,614.00
2022-12-23T09:30:45.385Z,650.00
2022-12-23T09:31:45.400Z,677.00
2022-12-23T09:32:45.308Z,592.00
2022-12-23T09:33:45.299Z,632.00
2022-12-23T09:34:45.312Z,583.00
2022-12-23T09:35:45.271Z,627.00
2022-12-23T09:36:49.110Z,670.00
2022-12-23T09:37:45.280Z,727.00
2022-12-23T09:38:45.336Z,750.00
2022-12-23T09:39:45.392Z,708.00
2022-12-23T09:40:45.220Z,759.00
2022-12-23T09:41:45.211Z,738.00
2022-12-23T09:42:45.250Z,745.00
2022-12-23T09:43:45.199Z,743.00
2022-12-23T09:44:45.210Z,714.00
2022-12-23T09:45:45.151Z,747.00
2022-12-23T09:46:45.216Z,672.00
2022-12-23T09:47:45.159Z,594.00
2022-12-23T09:48:45.167Z,564.00
2022-12-23T09:49:45.129Z,609.00
2022-12-23T09:50:45.173Z,679.00
2022-12-23T09:51:45.113Z,739.00
2022-12-23T09:52:45.105Z,637.00
2022-12-23T09:53:45.082Z,675.00
2022-12-23T09:54:45.102Z,765.00
2022-12-23T09:55:45.071Z,844.00
2022-12-23T09:56:45.060Z,814.00
2022-12-23T09:57:45.054Z,792.00
2022-12-23T09:58:45.043Z,764.00
2022-12-23T09:59:45.023Z,770.00
2022-12-23T10:00:45.010Z,840.00
2022-12-23T10:01:45.392Z,842.00
2022-12-23T10:02:45.324Z,892.00
2022-12-23T10:03:45.519Z,835.00
2022-12-23T10:04:44.979Z,891.00
2022-12-23T10:05:44.959Z,876.00
2022-12-23T10:06:44.964Z,797.00
2022-12-23T10:07:44.963Z,825.00
2022-12-23T10:08:44.971Z,742.00
2022-12-23T10:09:44.942Z,617.00
2022-12-23T10:10:44.914Z,547.00
2022-12-23T10:11:44.884Z,546.00
2022-12-23T10:12:44.885Z,637.00
2022-12-23T10:13:44.867Z,641.00
2022-12-23T10:14:44.857Z,602.00
2022-12-23T10:15:44.946Z,679.00
2022-12-23T10:16:44.908Z,651.00
2022-12-23T10:17:44.838Z,555.00
2022-12-23T10:18:44.858Z,516.00
2022-12-23T10:19:44.826Z,464.00
2022-12-23T10:20:44.807Z,423.00
2022-12-23T10:21:47.553Z,383.00
2022-12-23T10:22:44.781Z,362.00
2022-12-23T10:23:44.779Z,370.00
2022-12-23T10:24:44.744Z,382.00
2022-12-23T10:25:44.779Z,399.00
2022-12-23T10:26:44.789Z,402.00
2022-12-23T10:27:44.760Z,398.00
2022-12-23T10:28:44.726Z,388.00
2022-12-23T10:29:44.711Z,426.00
2022-12-23T10:31:11.169Z,424.00
2022-12-23T10:31:44.724Z,404.00
2022-12-23T10:32:44.699Z,402.00
2022-12-23T10:33:44.666Z,430.00
2022-12-23T10:34:44.695Z,432.00
2022-12-23T10:35:44.641Z,437.00
2022-12-23T10:36:44.786Z,431.00
2022-12-23T10:37:44.623Z,425.00
2022-12-23T10:38:44.591Z,416.00
2022-12-23T10:39:44.643Z,405.00
2022-12-23T10:40:44.570Z,389.00
2022-12-23T10:41:44.584Z,366.00
2022-12-23T10:42:44.573Z,324.00
2022-12-23T10:43:44.582Z,301.00
2022-12-23T10:44:44.523Z,285.00
2022-12-23T10:45:44.566Z,296.00
2022-12-23T10:46:44.658Z,307.00
2022-12-23T10:47:44.525Z,291.00
2022-12-23T10:48:44.489Z,278.00
2022-12-23T10:49:44.508Z,263.00
2022-12-23T10:50:44.476Z,267.00
2022-12-23T10:51:44.550Z,260.00
2022-12-23T10:52:44.452Z,243.00
2022-12-23T10:53:44.466Z,222.00
2022-12-23T10:54:44.449Z,195.00
2022-12-23T10:55:44.549Z,182.00
2022-12-23T10:56:44.413Z,165.00
2022-12-23T10:57:44.442Z,181.00
2022-12-23T10:58:44.379Z,174.00
2022-12-23T10:59:44.380Z,180.00
2022-12-23T11:00:44.442Z,190.00
2022-12-23T11:01:44.684Z,263.00
2022-12-23T11:02:44.471Z,298.00
2022-12-23T11:03:44.456Z,310.00
2022-12-23T11:04:44.324Z,337.00
2022-12-23T11:05:44.319Z,372.00
2022-12-23T11:06:44.547Z,333.00
2022-12-23T11:07:45.640Z,293.00
2022-12-23T11:08:44.317Z,254.00
2022-12-23T11:09:44.285Z,186.00
2022-12-23T11:10:44.279Z,271.00
2022-12-23T11:11:44.257Z,254.00
2022-12-23T11:12:44.297Z,298.00
2022-12-23T11:13:44.275Z,318.00
2022-12-23T11:14:44.273Z,259.00
2022-12-23T11:15:44.290Z,212.00
2022-12-23T11:16:44.294Z,174.00
2022-12-23T11:17:44.206Z,239.00
2022-12-23T11:18:44.184Z,196.00
2022-12-23T11:19:44.209Z,283.00
2022-12-23T11:20:44.195Z,226.00
2022-12-23T11:21:44.195Z,242.00
2022-12-23T11:22:44.178Z,195.00
2022-12-23T11:23:44.160Z,197.00
2022-12-23T11:24:44.171Z,199.00
2022-12-23T11:25:44.200Z,186.00
2022-12-23T11:26:44.148Z,228.00
2022-12-23T11:27:44.187Z,264.00
2022-12-23T11:28:44.070Z,221.00
2022-12-23T11:29:44.067Z,174.00
2022-12-23T11:30:44.054Z,227.00
2022-12-23T11:31:44.147Z,331.00
2022-12-23T11:32:44.017Z,269.00
2022-12-23T11:33:44.031Z,273.00
2022-12-23T11:34:43.996Z,292.00
2022-12-23T11:35:44.078Z,240.00
2022-12-23T11:36:43.991Z,246.00
2022-12-23T11:37:44.008Z,287.00
2022-12-23T11:38:43.949Z,194.00
2022-12-23T11:39:43.972Z,283.00
2022-12-23T11:40:43.931Z,290.00
2022-12-23T11:41:43.936Z,242.00
2022-12-23T11:42:43.925Z,203.00
2022-12-23T11:43:44.038Z,245.00
2022-12-23T11:44:43.898Z,190.00
2022-12-23T11:45:44.097Z,226.00
2022-12-23T11:46:43.872Z,236.00
2022-12-23T11:47:43.924Z,353.00
2022-12-23T11:48:43.898Z,319.00
2022-12-23T11:49:43.892Z,466.00
2022-12-23T11:50:43.859Z,539.00
2022-12-23T11:51:43.851Z,372.00
2022-12-23T11:52:43.834Z,637.00
2022-12-23T11:53:43.859Z,540.00
2022-12-23T11:54:43.782Z,446.00
2022-12-23T11:55:43.847Z,348.00
2022-12-23T11:56:43.905Z,559.00
2022-12-23T11:57:43.804Z,462.00
2022-12-23T11:58:43.764Z,324.00
2022-12-23T11:59:43.788Z,307.00
2022-12-23T12:00:43.727Z,448.00
2022-12-23T12:01:43.860Z,397.00
2022-12-23T12:02:43.701Z,364.00
2022-12-23T12:03:43.806Z,436.00
2022-12-23T12:04:43.699Z,322.00
2022-12-23T12:05:43.727Z,337.00
2022-12-23T12:06:43.659Z,310.00
2022-12-23T12:07:43.661Z,255.00
2022-12-23T12:08:43.663Z,198.00
2022-12-23T12:09:43.676Z,284.00
2022-12-23T12:10:43.640Z,214.00
2022-12-23T12:11:43.766Z,344.00
2022-12-23T12:12:43.596Z,430.00
2022-12-23T12:13:43.614Z,371.00
2022-12-23T12:14:43.585Z,431.00
2022-12-23T12:15:43.600Z,417.00
2022-12-23T12:16:43.663Z,373.00
2022-12-23T12:17:43.621Z,304.00
2022-12-23T12:18:43.534Z,236.00
2022-12-23T12:19:43.527Z,256.00
2022-12-23T12:20:43.566Z,211.00
2022-12-23T12:21:43.514Z,268.00
2022-12-23T12:22:43.521Z,209.00
2022-12-23T12:23:43.526Z,274.00
2022-12-23T12:24:43.477Z,297.00
2022-12-23T12:25:43.496Z,266.00
2022-12-23T12:26:43.445Z,257.00
2022-12-23T12:27:43.453Z,235.00
2022-12-23T12:28:43.431Z,218.00
2022-12-23T12:29:43.446Z,205.00
2022-12-23T12:30:43.519Z,155.00
2022-12-23T12:31:43.411Z,175.00
2022-12-23T12:32:43.386Z,154.00
2022-12-23T12:33:43.410Z,126.00
2022-12-23T12:34:43.380Z,152.00
2022-12-23T12:35:43.405Z,154.00
2022-12-23T12:36:43.472Z,147.00
2022-12-23T12:37:43.345Z,134.00
2022-12-23T12:38:43.313Z,201.00
2022-12-23T12:39:43.341Z,181.00
2022-12-23T12:40:43.307Z,141.00
2022-12-23T12:41:43.402Z,232.00
2022-12-23T12:42:43.274Z,200.00
2022-12-23T12:43:43.288Z,210.00
2022-12-23T12:44:43.253Z,191.00
2022-12-23T12:45:43.312Z,161.00
2022-12-23T12:46:43.245Z,161.00
2022-12-23T12:48:07.027Z,138.00
2022-12-23T12:48:43.208Z,172.00
2022-12-23T12:49:43.221Z,240.00
2022-12-23T12:50:43.200Z,200.00
2022-12-23T12:51:43.206Z,194.00
2022-12-23T12:52:43.181Z,239.00
2022-12-23T12:53:43.183Z,188.00
2022-12-23T12:54:43.146Z,217.00
2022-12-23T12:55:43.148Z,202.00
2022-12-23T12:56:43.166Z,209.00
2022-12-23T12:57:43.178Z,198.00
2022-12-23T12:58:43.132Z,218.00
2022-12-23T12:59:43.120Z,163.00
2022-12-23T13:00:43.085Z,329.00
2022-12-23T13:01:43.155Z,290.00
2022-12-23T13:02:43.083Z,317.00
2022-12-23T13:03:43.092Z,281.00
2022-12-23T13:04:43.050Z,208.00
2022-12-23T13:05:46.014Z,280.00
2022-12-23T13:06:43.226Z,295.00
2022-12-23T13:07:43.030Z,257.00
2022-12-23T13:08:43.037Z,239.00
2022-12-23T13:09:42.997Z,222.00
2022-12-23T13:10:42.977Z,219.00
2022-12-23T13:11:42.977Z,202.00
2022-12-23T13:12:42.978Z,236.00
2022-12-23T13:13:42.986Z,238.00
2022-12-23T13:14:42.967Z,250.00
2022-12-23T13:15:42.964Z,274.00
2022-12-23T13:16:42.978Z,281.00
2022-12-23T13:17:42.930Z,269.00
2022-12-23T13:18:42.912Z,271.00
2022-12-23T13:19:42.899Z,396.00
2022-12-23T13:20:42.889Z,384.00
2022-12-23T13:21:42.871Z,354.00
2022-12-23T13:22:42.870Z,295.00
2022-12-23T13:23:44.582Z,293.00
2022-12-23T13:24:42.864Z,326.00
2022-12-23T13:25:42.838Z,285.00
2022-12-23T13:26:42.887Z,239.00
2022-12-23T13:27:42.808Z,232.00
2022-12-23T13:28:42.808Z,231.00
2022-12-23T13:29:42.827Z,222.00
2022-12-23T13:30:42.836Z,193.00
2022-12-23T13:31:42.773Z,196.00
2022-12-23T13:32:42.756Z,169.00
2022-12-23T13:33:42.742Z,144.00
2022-12-23T13:34:42.728Z,128.00
2022-12-23T13:35:42.733Z,118.00
2022-12-23T13:36:42.810Z,108.00
2022-12-23T13:37:42.712Z,105.00
2022-12-23T13:38:42.703Z,105.00
2022-12-23T13:39:42.762Z,110.00
2022-12-23T13:40:42.657Z,141.00
2022-12-23T13:41:42.703Z,128.00
2022-12-23T13:42:42.637Z,111.00
2022-12-23T13:43:42.677Z,113.00
2022-12-23T13:44:42.644Z,86.00
2022-12-23T13:45:42.646Z,92.00
2022-12-23T13:46:42.622Z,128.00
2022-12-23T13:47:42.624Z,113.00
2022-12-23T13:48:42.579Z,134.00
2022-12-23T13:49:42.628Z,209.00
2022-12-23T13:50:42.557Z,198.00
2022-12-23T13:51:42.549Z,167.00
2022-12-23T13:52:42.530Z,143.00
2022-12-23T13:53:42.542Z,133.00
2022-12-23T13:54:42.500Z,137.00
2022-12-23T13:55:42.526Z,158.00
2022-12-23T13:56:42.527Z,148.00
2022-12-23T13:57:42.550Z,128.00
2022-12-23T13:58:42.476Z,103.00
2022-12-23T13:59:42.504Z,96.00
2022-12-23T14:00:42.456Z,127.00
2022-12-23T14:01:42.631Z,129.00
2022-12-23T14:02:42.625Z,126.00
2022-12-23T14:03:42.419Z,110.00
2022-12-23T14:04:42.402Z,80.00
2022-12-23T14:05:42.416Z,96.00
2022-12-23T14:06:42.389Z,75.00
2022-12-23T14:07:42.401Z,59.00
2022-12-23T14:08:42.378Z,46.00
2022-12-23T14:09:42.397Z,38.00
2022-12-23T14:10:42.329Z,32.00
2022-12-23T14:11:42.355Z,46.00
2022-12-23T14:12:42.320Z,59.00
2022-12-23T14:13:42.345Z,89.00
2022-12-23T14:14:42.288Z,90.00
2022-12-23T14:15:42.402Z,90.00
2022-12-23T14:16:42.273Z,89.00
2022-12-23T14:17:42.292Z,88.00
2022-12-23T14:18:42.258Z,84.00
2022-12-23T14:19:42.283Z,93.00
2022-12-23T14:20:42.231Z,83.00
2022-12-23T14:21:42.259Z,64.00
2022-12-23T14:22:42.204Z,45.00
2022-12-23T14:23:42.237Z,67.00
2022-12-23T14:24:42.193Z,78.00
2022-12-23T14:25:42.184Z,71.00
2022-12-23T14:26:42.164Z,67.00
2022-12-23T14:27:42.194Z,73.00
2022-12-23T14:28:42.144Z,87.00
2022-12-23T14:29:42.215Z,101.00
2022-12-23T14:30:42.214Z,100.00
2022-12-23T14:31:42.272Z,134.00
2022-12-23T14:32:42.114Z,145.00
2022-12-23T14:33:42.132Z,133.00
2022-12-23T14:34:42.091Z,94.00
2022-12-23T14:35:42.803Z,78.00
2022-12-23T14:36:42.145Z,70.00
2022-12-23T14:37:42.056Z,76.00
2022-12-23T14:38:42.089Z,70.00
2022-12-23T14:39:42.075Z,59.00
2022-12-23T14:40:42.075Z,57.00
2022-12-23T14:41:42.011Z,63.00
2022-12-23T14:42:42.061Z,41.00
2022-12-23T14:43:42.000Z,62.00
2022-12-23T14:44:41.994Z,73.00
2022-12-23T14:45:41.990Z,90.00
2022-12-23T14:46:42.048Z,80.00
2022-12-23T14:47:41.964Z,66.00
2022-12-23T14:48:41.984Z,51.00
2022-12-23T14:49:41.921Z,47.00
2022-12-23T14:50:41.936Z,37.00
2022-12-23T14:51:41.932Z,34.00
2022-12-23T14:52:44.979Z,33.00
2022-12-23T14:53:41.882Z,30.00
2022-12-23T14:54:50.310Z,25.00
2022-12-23T14:55:41.864Z,22.00
2022-12-23T14:56:41.876Z,18.00
2022-12-23T14:57:41.869Z,14.00
2022-12-23T14:58:41.857Z,17.00
2022-12-23T14:59:41.810Z,15.00
2022-12-23T15:00:41.852Z,14.00
2022-12-23T15:01:41.872Z,11.00
2022-12-23T15:02:41.882Z,10.00
2022-12-23T15:03:41.788Z,9.00
2022-12-23T15:04:41.822Z,11.00
2022-12-23T15:05:41.777Z,15.00
2022-12-23T15:06:41.759Z,12.00
2022-12-23T15:07:41.723Z,10.00
2022-12-23T15:08:41.758Z,9.00
2022-12-23T15:09:41.703Z,7.00
2022-12-23T15:10:41.734Z,5.00
2022-12-23T15:11:41.686Z,4.00
2022-12-23T15:12:41.700Z,5.00
2022-12-23T15:13:41.676Z,5.00
2022-12-23T15:14:41.700Z,6.00
2022-12-23T15:15:41.758Z,6.00
2022-12-23T15:16:41.791Z,3.00
2022-12-23T15:17:41.619Z,4.00
2022-12-23T15:18:41.627Z,4.00
2022-12-23T15:19:41.613Z,3.00
2022-12-23T15:20:41.642Z,3.00
2022-12-23T15:21:43.175Z,6.00
2022-12-23T15:22:41.585Z,9.00
2022-12-23T15:23:41.575Z,10.00
2022-12-23T15:24:41.638Z,8.00
2022-12-23T15:25:41.565Z,8.00
2022-12-23T15:26:57.550Z,4.00
2022-12-23T15:27:41.524Z,3.00
2022-12-23T15:28:41.583Z,3.00
2022-12-23T15:29:41.522Z,4.00
2022-12-23T15:30:41.511Z,6.00
2022-12-23T15:31:41.564Z,8.00
2022-12-23T15:32:41.589Z,7.00
2022-12-23T15:34:41.520Z,8.00
2022-12-23T15:35:41.467Z,5.00
2022-12-23T15:36:41.539Z,5.00
2022-12-23T15:37:41.416Z,3.00
2022-12-23T15:38:41.414Z,2.00
2022-12-23T15:39:41.404Z,1.00
2022-12-23T15:40:41.401Z,1.00
2022-12-23T15:41:41.377Z,1.00
2022-12-23T15:42:41.394Z,1.00
2022-12-23T15:43:41.348Z,1.00
2022-12-23T15:44:41.360Z,1.00
2022-12-23T15:45:41.319Z,1.00
2022-12-23T15:46:41.494Z,0.00
2022-12-23T15:47:41.379Z,0.00
2022-12-23T15:48:41.303Z,1.00
2022-12-23T15:49:41.334Z,0.00
2022-12-23T15:50:42.083Z,0.00
2022-12-23T15:52:06.395Z,0.00
2022-12-23T15:52:41.348Z,0.00
2022-12-23T15:53:41.328Z,0.00
2022-12-23T15:54:41.288Z,0.00
2022-12-23T15:55:41.319Z,0.00
2022-12-23T15:56:41.353Z,0.00
2022-12-23T15:57:45.025Z,0.00
2022-12-23T15:58:41.301Z,0.00
2022-12-23T15:59:41.251Z,0.00
2022-12-23T16:00:41.251Z,0.00
2022-12-23T16:01:41.343Z,0.00
2022-12-23T16:03:41.280Z,0.00
2022-12-23T16:04:41.193Z,0.00
2022-12-23T16:05:41.180Z,0.00
2022-12-23T16:06:41.188Z,0.00
2022-12-23T16:07:41.160Z,0.00
2022-12-23T16:08:41.170Z,0.00
2022-12-23T16:09:41.131Z,0.00
2022-12-23T16:10:41.135Z,0.00
2022-12-23T16:11:41.122Z,0.00
2022-12-23T16:12:41.102Z,0.00
2022-12-23T16:13:46.749Z,0.00
2022-12-23T16:14:41.102Z,0.00
2022-12-23T16:15:41.052Z,0.00
2022-12-23T16:16:41.204Z,0.00
2022-12-23T16:17:41.033Z,0.00
2022-12-23T16:18:46.893Z,0.00
2022-12-23T16:19:41.023Z,0.00
2022-12-23T16:20:41.036Z,0.00
2022-12-23T16:21:40.997Z,0.00
2022-12-23T16:22:41.018Z,0.00
2022-12-23T16:23:40.979Z,0.00
2022-12-23T16:24:40.990Z,0.00
2022-12-23T16:25:44.184Z,0.00
2022-12-23T16:26:40.963Z,0.00
2022-12-23T16:27:40.957Z,0.00
2022-12-23T16:28:40.956Z,0.00
2022-12-23T16:29:40.918Z,0.00
2022-12-23T16:30:40.936Z,0.00
2022-12-23T16:31:48.288Z,0.00
2022-12-23T16:32:40.906Z,0.00
2022-12-23T16:33:40.888Z,0.00
2022-12-23T16:34:40.881Z,0.00
2022-12-23T16:35:40.847Z,0.00
2022-12-23T16:36:40.906Z,0.00
2022-12-23T16:37:44.549Z,0.00
2022-12-23T16:38:40.851Z,0.00
2022-12-23T16:39:40.811Z,0.00
2022-12-23T16:40:40.806Z,0.00
2022-12-23T16:41:40.790Z,0.00
2022-12-23T16:42:40.793Z,0.00